Time;durP1;ratioP1;P1;durP2;ratioP2;P2;SDS_P1;SDS_P2;PMS_P1;PMS_P2;Temp;Humidity;BMP_temperature;BMP_pressure;BME280_temperature;BME280_humidity;BME280_pressure;Samples;Min_cycle;Max_cycle;Signal;HPM_P1;HPM_P2
2022/04/11 00:02:00;;;;;;;60.78;31.88;;;-1.20;99.90;;;;;;5116632;28;20081;-73
2022/04/11 00:04:26;;;;;;;69.30;34.13;;;-1.20;99.90;;;;;;5115204;28;20035;-73
2022/04/11 00:06:52;;;;;;;61.22;33.88;;;-1.20;99.90;;;;;;5116744;28;20441;-71
2022/04/11 00:09:17;;;;;;;72.70;36.95;;;-1.10;99.90;;;;;;5115705;28;20106;-71
2022/04/11 00:11:43;;;;;;;73.78;35.80;;;-1.10;99.90;;;;;;5115247;28;20024;-73
2022/04/11 00:14:09;;;;;;;68.25;34.05;;;-1.00;99.90;;;;;;5116561;28;20450;-72
2022/04/11 00:16:34;;;;;;;67.05;32.45;;;-1.00;99.90;;;;;;5115191;28;20023;-74
2022/04/11 00:19:00;;;;;;;66.50;34.00;;;-0.90;99.90;;;;;;5116374;28;20023;-71
2022/04/11 00:21:26;;;;;;;63.70;33.35;;;-0.90;99.90;;;;;;5115105;28;20114;-71
2022/04/11 00:23:51;;;;;;;65.22;32.03;;;-0.80;99.90;;;;;;5115061;28;20076;-72
2022/04/11 00:26:17;;;;;;;68.20;34.40;;;-0.70;99.90;;;;;;5115042;28;20366;-71
2022/04/11 00:28:42;;;;;;;66.60;35.30;;;-0.70;99.90;;;;;;5116310;28;20026;-74
2022/04/11 00:31:08;;;;;;;66.22;33.78;;;-0.60;99.90;;;;;;5116120;28;20043;-74
2022/04/11 00:33:34;;;;;;;68.00;34.40;;;-0.60;99.90;;;;;;5116233;28;20051;-74
2022/04/11 00:35:59;;;;;;;65.22;33.80;;;-0.50;99.90;;;;;;5116087;28;20030;-71
2022/04/11 00:38:25;;;;;;;63.42;31.75;;;-0.50;99.90;;;;;;5116281;28;20016;-72
2022/04/11 00:40:50;;;;;;;61.10;32.50;;;-0.50;99.90;;;;;;5114640;28;20042;-74
2022/04/11 00:43:37;;;;;;;57.53;31.58;;;-0.40;99.90;;;;;;5116059;28;20037;-74
2022/04/11 00:46:03;;;;;;;52.72;30.20;;;-0.40;99.90;;;;;;5114500;28;20503;-73
2022/04/11 00:48:29;;;;;;;61.05;30.77;;;-0.40;99.90;;;;;;5116102;27;20073;-71
2022/04/11 00:51:11;;;;;;;52.72;28.67;;;-0.40;99.90;;;;;;5115865;27;20023;-73
2022/04/11 00:53:39;;;;;;;52.10;26.97;;;-0.40;99.90;;;;;;5115999;28;20023;-74
2022/04/11 00:56:08;;;;;;;56.53;28.60;;;-0.40;99.90;;;;;;5115840;28;20483;-73
2022/04/11 00:58:35;;;;;;;53.83;29.38;;;-0.40;99.90;;;;;;5114389;28;20043;-71
2022/04/11 01:01:02;;;;;;;70.38;34.03;;;-0.40;99.90;;;;;;5115485;27;20066;-71
2022/04/11 01:03:28;;;;;;;61.72;34.75;;;-0.30;99.90;;;;;;5115612;28;20028;-74
2022/04/11 01:05:53;;;;;;;71.40;34.80;;;-0.30;99.90;;;;;;5115544;28;20024;-72
2022/04/11 01:08:19;;;;;;;66.25;32.05;;;-0.30;99.90;;;;;;5115620;28;20385;-73
2022/04/11 01:10:45;;;;;;;65.95;35.28;;;-0.30;99.90;;;;;;5115479;28;20023;-72
2022/04/11 01:13:11;;;;;;;75.38;36.97;;;-0.30;99.90;;;;;;5113996;28;20030;-74
2022/04/11 01:15:37;;;;;;;73.38;39.20;;;-0.30;99.90;;;;;;5114083;28;20027;-74
2022/04/11 01:18:02;;;;;;;62.97;34.75;;;-0.30;99.90;;;;;;5115283;28;20400;-70
2022/04/11 01:20:28;;;;;;;59.53;30.00;;;-0.30;99.90;;;;;;5115275;28;20022;-71
2022/04/11 01:22:53;;;;;;;55.05;31.27;;;-0.30;99.90;;;;;;5115107;28;20034;-74
2022/04/11 01:25:20;;;;;;;60.42;31.45;;;-0.30;99.90;;;;;;5113882;28;20034;-74
2022/04/11 01:27:46;;;;;;;59.13;29.98;;;-0.30;99.90;;;;;;5115111;28;20020;-74
2022/04/11 01:30:15;;;;;;;53.15;26.67;;;-0.30;99.90;;;;;;5115050;28;20028;-73
2022/04/11 01:32:41;;;;;;;46.65;25.45;;;-0.30;99.90;;;;;;5114820;28;20069;-70
2022/04/11 01:35:23;;;;;;;59.00;30.42;;;-0.30;99.90;;;;;;5114956;27;20020;-74
2022/04/11 01:37:48;;;;;;;60.38;31.60;;;-0.30;99.90;;;;;;5114885;28;20023;-74
2022/04/11 01:40:14;;;;;;;65.10;33.75;;;-0.30;99.90;;;;;;5114965;28;20392;-71
2022/04/11 01:42:40;;;;;;;60.58;32.60;;;-0.30;99.90;;;;;;5113467;28;20038;-71
2022/04/11 01:45:10;;;;;;;61.35;30.15;;;-0.30;99.90;;;;;;5114464;28;20027;-70
2022/04/11 01:47:40;;;;;;;55.78;28.95;;;-0.30;99.90;;;;;;5114818;28;20063;-71
2022/04/11 01:50:07;;;;;;;44.40;25.42;;;-0.30;99.90;;;;;;5114433;28;20064;-71
2022/04/11 01:52:34;;;;;;;52.72;27.08;;;-0.30;99.90;;;;;;5114342;28;20043;-70
2022/04/11 01:55:01;;;;;;;48.30;24.02;;;-0.30;99.90;;;;;;5114704;28;20100;-70
2022/04/11 01:57:26;;;;;;;46.65;25.30;;;-0.30;99.90;;;;;;5113071;28;20513;-71
2022/04/11 01:59:52;;;;;;;46.15;21.48;;;-0.30;99.90;;;;;;5114448;28;20145;-74
2022/04/11 02:02:17;;;;;;;35.30;20.83;;;-0.30;99.90;;;;;;5114323;28;20145;-71
2022/04/11 02:04:43;;;;;;;36.72;20.20;;;-0.30;99.90;;;;;;5113243;28;20507;-73
2022/04/11 02:07:08;;;;;;;36.22;19.45;;;-0.30;99.90;;;;;;5114324;28;20023;-71
2022/04/11 02:09:34;;;;;;;31.23;18.15;;;-0.30;99.90;;;;;;5114385;28;20030;-72
2022/04/11 02:11:59;;;;;;;31.50;17.15;;;-0.20;99.90;;;;;;5112957;28;20020;-73
2022/04/11 02:14:25;;;;;;;34.75;17.90;;;-0.20;99.90;;;;;;5114263;28;20020;-72
2022/04/11 02:16:50;;;;;;;32.15;18.67;;;-0.20;99.90;;;;;;5114241;28;20384;-72
2022/04/11 02:19:16;;;;;;;32.28;18.60;;;-0.20;99.90;;;;;;5112958;28;20072;-71
2022/04/11 02:21:41;;;;;;;30.98;17.13;;;-0.20;99.90;;;;;;5114148;28;20058;-74
2022/04/11 02:24:07;;;;;;;32.78;17.77;;;-0.10;99.90;;;;;;5112819;28;20035;-74
2022/04/11 02:26:33;;;;;;;31.23;17.75;;;-0.10;99.90;;;;;;5114058;28;20486;-71
2022/04/11 02:28:58;;;;;;;32.10;17.15;;;0.00;99.90;;;;;;5113968;28;20423;-74
2022/04/11 02:31:24;;;;;;;34.38;16.83;;;0.00;99.90;;;;;;5113951;28;20027;-71
2022/04/11 02:33:49;;;;;;;29.00;16.15;;;0.00;99.90;;;;;;5112528;28;20040;-73
2022/04/11 02:36:15;;;;;;;28.50;15.55;;;0.10;99.90;;;;;;5113842;28;20024;-73
2022/04/11 02:38:40;;;;;;;30.60;17.63;;;0.10;99.90;;;;;;5113909;28;20024;-71
2022/04/11 02:41:07;;;;;;;23.58;14.75;;;0.10;99.90;;;;;;5113917;28;20023;-71
2022/04/11 02:43:32;;;;;;;30.70;16.98;;;0.20;99.90;;;;;;5113509;28;20540;-74
2022/04/11 02:45:58;;;;;;;28.95;16.92;;;0.20;99.90;;;;;;5113096;28;20099;-71
2022/04/11 02:48:23;;;;;;;30.52;16.75;;;0.20;99.90;;;;;;5113772;28;20052;-71
2022/04/11 02:50:49;;;;;;;29.17;16.63;;;0.30;99.90;;;;;;5113552;28;20047;-70
2022/04/11 02:53:14;;;;;;;31.38;17.75;;;0.30;99.90;;;;;;5112477;28;20582;-71
2022/04/11 02:55:40;;;;;;;34.85;17.00;;;0.30;99.90;;;;;;5113669;28;20440;-73
2022/04/11 02:58:05;;;;;;;30.08;16.73;;;0.30;99.90;;;;;;5113540;28;20089;-71
2022/04/11 03:00:31;;;;;;;29.95;17.05;;;0.30;99.90;;;;;;5112268;28;20054;-74
2022/04/11 03:02:56;;;;;;;30.35;18.05;;;0.30;99.90;;;;;;5112119;28;20032;-73
2022/04/11 03:05:22;;;;;;;31.08;16.58;;;0.40;99.90;;;;;;5115073;28;20027;-74
2022/04/11 03:07:48;;;;;;;34.38;18.88;;;0.40;99.90;;;;;;5117888;28;20019;-74
2022/04/11 03:10:13;;;;;;;45.05;25.75;;;0.40;99.90;;;;;;5117950;28;20024;-74
2022/04/11 03:12:39;;;;;;;50.53;26.90;;;0.40;99.90;;;;;;5117675;28;20030;-74
2022/04/11 03:15:05;;;;;;;94.40;45.40;;;0.40;99.90;;;;;;5117669;28;20019;-74
2022/04/11 03:17:31;;;;;;;90.45;45.63;;;0.40;99.90;;;;;;5117542;28;20024;-71
2022/04/11 03:19:56;;;;;;;76.50;36.75;;;0.40;99.90;;;;;;5117659;28;20027;-76
2022/04/11 03:22:22;;;;;;;76.32;37.88;;;0.50;99.90;;;;;;5117419;28;20111;-74
2022/04/11 03:24:47;;;;;;;41.30;23.02;;;0.50;99.90;;;;;;5117661;28;20012;-73
2022/04/11 03:27:13;;;;;;;30.45;16.45;;;0.50;99.90;;;;;;5116184;28;20114;-74
2022/04/11 03:29:38;;;;;;;30.90;16.20;;;0.50;99.90;;;;;;5117443;28;20024;-73
2022/04/11 03:32:04;;;;;;;26.02;15.02;;;0.50;99.90;;;;;;5117160;28;20043;-74
2022/04/11 03:34:30;;;;;;;30.45;15.82;;;0.50;99.90;;;;;;5116153;28;20059;-73
2022/04/11 03:36:56;;;;;;;30.55;17.13;;;0.50;99.90;;;;;;5117321;28;20023;-71
2022/04/11 03:39:21;;;;;;;24.90;14.63;;;0.50;99.90;;;;;;5116980;28;20429;-72
2022/04/11 03:41:47;;;;;;;23.45;13.50;;;0.50;99.90;;;;;;5117252;28;20027;-73
2022/04/11 03:44:12;;;;;;;30.00;15.50;;;0.50;99.90;;;;;;5115826;28;20039;-72
2022/04/11 03:46:38;;;;;;;23.20;13.63;;;0.50;99.90;;;;;;5117097;28;20085;-70
2022/04/11 03:49:04;;;;;;;22.45;14.90;;;0.60;99.90;;;;;;5115746;28;20388;-73
2022/04/11 03:51:30;;;;;;;30.67;15.38;;;0.50;99.90;;;;;;5117004;28;20020;-71
2022/04/11 03:53:55;;;;;;;35.40;18.92;;;0.50;99.90;;;;;;5115781;28;20089;-71
2022/04/11 03:56:21;;;;;;;36.03;19.90;;;0.50;99.90;;;;;;5116983;28;20024;-73
2022/04/11 03:58:47;;;;;;;37.85;20.10;;;0.40;99.90;;;;;;5116653;28;20419;-73
2022/04/11 04:01:13;;;;;;;41.78;21.27;;;0.40;99.90;;;;;;5116795;28;20073;-73
2022/04/11 04:03:39;;;;;;;49.10;23.10;;;0.40;99.90;;;;;;5116785;28;20040;-71
2022/04/11 04:06:04;;;;;;;55.28;25.33;;;0.30;99.90;;;;;;5116736;28;20102;-70
2022/04/11 04:08:30;;;;;;;55.15;23.90;;;0.30;99.90;;;;;;5115377;28;20062;-71
2022/04/11 04:10:56;;;;;;;39.00;19.58;;;0.30;99.90;;;;;;5115380;28;20107;-70
2022/04/11 04:13:21;;;;;;;41.03;19.63;;;0.30;99.90;;;;;;5115388;28;20060;-73
2022/04/11 04:15:47;;;;;;;36.45;17.48;;;0.30;99.90;;;;;;5116301;28;20024;-70
2022/04/11 04:18:13;;;;;;;31.95;18.08;;;0.30;99.90;;;;;;5115264;28;20016;-74
2022/04/11 04:20:41;;;;;;;30.15;15.70;;;0.30;99.90;;;;;;5116477;28;20016;-73
2022/04/11 04:23:07;;;;;;;25.85;15.55;;;0.40;99.90;;;;;;5116307;28;20586;-71
2022/04/11 04:25:34;;;;;;;23.35;13.63;;;0.40;99.90;;;;;;5114703;28;20028;-74
2022/04/11 04:28:00;;;;;;;21.25;11.50;;;0.30;99.90;;;;;;5115246;28;20110;-74
2022/04/11 04:30:28;;;;;;;22.77;13.70;;;0.40;99.90;;;;;;5115838;28;20035;-74
2022/04/11 04:32:54;;;;;;;22.38;12.75;;;0.40;99.90;;;;;;5111088;28;20036;-71
2022/04/11 04:35:20;;;;;;;19.75;12.48;;;0.40;99.90;;;;;;5115806;28;20023;-74
2022/04/11 04:37:45;;;;;;;20.38;12.07;;;0.40;99.90;;;;;;5115945;28;20019;-74
2022/04/11 04:40:11;;;;;;;18.70;11.98;;;0.50;99.90;;;;;;5114237;28;20034;-74
2022/04/11 04:42:37;;;;;;;28.13;14.65;;;0.50;99.90;;;;;;5113614;28;20039;-74
2022/04/11 04:45:04;;;;;;;25.45;13.77;;;0.60;99.90;;;;;;5115938;28;20106;-72
2022/04/11 04:47:29;;;;;;;27.63;13.20;;;0.60;99.90;;;;;;5114268;28;20496;-74
2022/04/11 04:49:55;;;;;;;20.73;11.38;;;0.60;99.90;;;;;;5115846;28;20024;-71
2022/04/11 04:52:20;;;;;;;53.08;28.65;;;0.60;99.90;;;;;;5114556;28;20026;-74
2022/04/11 04:54:46;;;;;;;47.92;23.30;;;0.60;99.90;;;;;;5115768;28;20070;-72
2022/04/11 04:57:11;;;;;;;48.50;23.63;;;0.60;99.90;;;;;;5115073;27;20153;-71
2022/04/11 04:59:37;;;;;;;51.88;23.73;;;0.70;99.90;;;;;;5113819;28;20068;-73
2022/04/11 05:02:02;;;;;;;33.17;15.40;;;0.70;99.90;;;;;;5114078;27;20092;-74
2022/04/11 05:04:28;;;;;;;26.33;12.60;;;0.70;99.90;;;;;;5115511;28;20110;-73
2022/04/11 05:06:54;;;;;;;30.30;16.38;;;0.70;99.90;;;;;;5115280;28;20027;-71
2022/04/11 05:09:19;;;;;;;26.92;11.45;;;0.70;99.90;;;;;;5102233;27;20040;-74
2022/04/11 05:11:45;;;;;;;31.80;15.07;;;0.80;99.90;;;;;;5093985;28;20020;-73
2022/04/11 05:14:11;;;;;;;21.33;12.10;;;0.80;99.90;;;;;;5092704;28;20123;-72
2022/04/11 05:16:37;;;;;;;24.38;12.50;;;0.80;99.90;;;;;;5093662;28;20024;-70
2022/04/11 05:19:03;;;;;;;24.45;13.45;;;0.80;99.90;;;;;;5095207;28;20036;-71
2022/04/11 05:21:29;;;;;;;19.50;10.35;;;0.90;99.90;;;;;;5114102;28;20034;-71
2022/04/11 05:23:55;;;;;;;20.45;10.32;;;1.00;99.90;;;;;;5113060;28;20040;-74
2022/04/11 05:26:20;;;;;;;19.45;10.27;;;1.00;99.90;;;;;;5113774;28;20031;-74
2022/04/11 05:28:48;;;;;;;26.63;13.38;;;1.10;99.90;;;;;;5112004;28;20038;-74
2022/04/11 05:31:15;;;;;;;28.92;15.90;;;1.10;99.90;;;;;;5112584;28;20374;-74
2022/04/11 05:33:40;;;;;;;20.33;10.38;;;1.10;99.90;;;;;;5113233;28;20404;-74
2022/04/11 05:36:06;;;;;;;21.40;11.85;;;1.20;99.90;;;;;;5109567;28;20023;-74
2022/04/11 05:38:31;;;;;;;19.33;11.45;;;1.20;99.90;;;;;;5111615;28;20027;-74
2022/04/11 05:40:59;;;;;;;23.60;11.93;;;1.30;99.90;;;;;;5113007;28;20015;-73
2022/04/11 05:43:25;;;;;;;20.58;10.75;;;1.40;99.90;;;;;;5113235;28;20481;-70
2022/04/11 05:45:50;;;;;;;23.23;12.43;;;1.50;99.90;;;;;;5114380;28;20016;-70
2022/04/11 05:48:16;;;;;;;15.80;10.35;;;1.60;99.90;;;;;;5113852;28;20165;-74
2022/04/11 05:50:42;;;;;;;18.45;9.52;;;1.70;99.90;;;;;;5113214;28;20373;-74
2022/04/11 05:53:07;;;;;;;17.67;9.27;;;1.70;99.90;;;;;;5112518;28;20035;-74
2022/04/11 05:55:33;;;;;;;15.63;8.48;;;1.80;99.90;;;;;;5113716;28;20038;-73
2022/04/11 05:57:59;;;;;;;27.75;11.18;;;1.80;99.90;;;;;;5111160;28;20084;-73
2022/04/11 06:00:25;;;;;;;11.75;7.45;;;1.90;99.90;;;;;;5110802;28;20419;-74
2022/04/11 06:02:51;;;;;;;16.80;8.30;;;1.90;99.90;;;;;;5111276;28;20031;-74
2022/04/11 06:05:17;;;;;;;25.30;13.15;;;2.00;99.90;;;;;;5111851;28;20066;-74
2022/04/11 06:07:42;;;;;;;15.10;8.68;;;2.00;99.90;;;;;;5111780;28;20081;-74
2022/04/11 06:10:09;;;;;;;13.18;8.02;;;2.20;99.90;;;;;;5110847;28;20019;-72
2022/04/11 06:12:35;;;;;;;15.10;7.78;;;2.20;99.90;;;;;;5112507;28;20095;-71
2022/04/11 06:15:01;;;;;;;41.38;15.43;;;2.30;99.90;;;;;;5114195;28;20045;-74
2022/04/11 06:17:27;;;;;;;35.53;15.48;;;2.40;99.90;;;;;;5114337;28;20031;-74
2022/04/11 06:19:55;;;;;;;16.98;6.93;;;2.50;99.90;;;;;;5114237;28;20373;-74
2022/04/11 06:22:21;;;;;;;82.63;30.52;;;2.50;99.90;;;;;;5114115;28;20107;-73
2022/04/11 06:24:48;;;;;;;18.35;9.57;;;2.60;99.90;;;;;;5112953;28;20030;-71
2022/04/11 06:27:14;;;;;;;15.80;7.47;;;2.80;99.90;;;;;;5114053;28;20016;-74
2022/04/11 06:29:40;;;;;;;66.03;25.00;;;2.90;99.90;;;;;;5113954;28;20110;-74
2022/04/11 06:32:05;;;;;;;10.38;6.72;;;2.80;99.90;;;;;;5113394;28;20462;-70
2022/04/11 06:34:32;;;;;;;12.93;7.75;;;3.00;99.90;;;;;;5113659;28;20024;-71
2022/04/11 06:36:58;;;;;;;14.98;6.97;;;3.10;99.90;;;;;;5112916;28;20016;-71
2022/04/11 06:39:24;;;;;;;23.02;9.05;;;3.10;99.90;;;;;;5112486;28;20168;-73
2022/04/11 06:41:49;;;;;;;12.13;8.68;;;3.20;99.90;;;;;;5113808;28;20092;-71
2022/04/11 06:44:15;;;;;;;12.25;6.75;;;3.30;99.90;;;;;;5112591;28;20035;-74
2022/04/11 06:46:41;;;;;;;11.25;5.97;;;3.30;99.90;;;;;;5113891;28;20054;-70
2022/04/11 06:49:06;;;;;;;17.98;8.98;;;3.30;99.90;;;;;;5112402;28;20015;-71
2022/04/11 06:51:32;;;;;;;16.00;9.00;;;3.50;99.90;;;;;;5112097;28;20051;-74
2022/04/11 06:53:58;;;;;;;14.32;6.53;;;3.40;99.90;;;;;;5112332;28;20050;-72
2022/04/11 06:56:23;;;;;;;16.85;9.68;;;3.40;99.90;;;;;;5112355;28;20114;-71
2022/04/11 06:58:49;;;;;;;10.82;5.93;;;3.50;99.90;;;;;;5112476;28;20465;-74
2022/04/11 07:01:15;;;;;;;12.27;7.53;;;3.70;99.90;;;;;;5112403;28;20020;-74
2022/04/11 07:03:40;;;;;;;9.70;4.75;;;4.10;99.90;;;;;;5112356;28;20055;-74
2022/04/11 07:06:06;;;;;;;8.88;5.43;;;4.20;99.90;;;;;;5113605;28;20092;-71
2022/04/11 07:08:31;;;;;;;12.57;5.50;;;4.30;99.10;;;;;;5113564;28;20065;-74
2022/04/11 07:10:58;;;;;;;9.73;5.90;;;4.40;99.60;;;;;;5112295;28;20024;-71
2022/04/11 07:13:25;;;;;;;21.92;9.65;;;4.40;91.60;;;;;;5113626;28;20089;-71
2022/04/11 07:15:50;;;;;;;18.92;7.65;;;4.40;91.60;;;;;;5113365;28;20023;-71
2022/04/11 07:18:16;;;;;;;9.63;5.75;;;4.60;87.80;;;;;;5113623;28;20423;-74
2022/04/11 07:20:42;;;;;;;5.32;3.53;;;4.70;89.50;;;;;;5113608;28;20031;-75
2022/04/11 07:23:07;;;;;;;13.02;6.10;;;4.50;84.00;;;;;;5112171;28;20500;-74
2022/04/11 07:25:33;;;;;;;6.75;5.15;;;4.50;88.20;;;;;;5113460;28;20031;-71
2022/04/11 07:27:59;;;;;;;11.10;6.47;;;4.70;89.90;;;;;;5113456;28;20092;-71
2022/04/11 07:30:24;;;;;;;17.88;5.63;;;4.80;89.00;;;;;;5113497;28;20526;-75
2022/04/11 07:32:50;;;;;;;14.65;5.35;;;4.80;88.50;;;;;;5112065;28;20069;-74
2022/04/11 07:35:15;;;;;;;8.13;4.90;;;4.70;83.40;;;;;;5113411;28;20027;-73
2022/04/11 07:37:41;;;;;;;13.55;6.30;;;4.70;85.30;;;;;;5113291;28;20852;-71
2022/04/11 07:40:07;;;;;;;12.95;5.50;;;4.70;84.90;;;;;;5113450;28;20035;-74
2022/04/11 07:42:33;;;;;;;9.80;5.55;;;4.60;87.50;;;;;;5111946;28;20031;-72
2022/04/11 07:44:58;;;;;;;8.43;4.97;;;4.60;87.90;;;;;;5113392;28;20030;-74
2022/04/11 07:47:24;;;;;;;11.93;5.68;;;4.50;88.20;;;;;;5113263;28;20030;-71
2022/04/11 07:49:49;;;;;;;8.50;5.43;;;4.30;89.50;;;;;;5113371;28;20012;-72
2022/04/11 07:52:15;;;;;;;8.77;5.10;;;4.10;92.00;;;;;;5115741;28;20366;-69
2022/04/11 07:54:41;;;;;;;5.32;3.83;;;4.10;96.30;;;;;;5115915;28;20022;-72
2022/04/11 07:57:08;;;;;;;9.57;5.35;;;4.10;94.70;;;;;;5116709;28;20473;-72
2022/04/11 07:59:34;;;;;;;7.15;5.18;;;4.10;96.30;;;;;;5115192;28;20011;-69
2022/04/11 08:01:59;;;;;;;8.40;4.40;;;4.30;98.60;;;;;;5114897;28;20030;-69
2022/04/11 08:04:25;;;;;;;10.38;4.63;;;4.30;94.60;;;;;;5116413;28;20027;-69
2022/04/11 08:06:50;;;;;;;8.63;4.13;;;4.40;93.40;;;;;;5116353;28;20073;-69
2022/04/11 08:09:16;;;;;;;6.53;3.38;;;4.70;93.00;;;;;;5116889;27;20082;-70
2022/04/11 08:11:41;;;;;;;8.05;3.65;;;4.60;83.30;;;;;;5115461;28;20156;-72
2022/04/11 08:14:07;;;;;;;10.38;4.97;;;4.70;81.00;;;;;;5117175;28;20020;-72
2022/04/11 08:16:32;;;;;;;13.80;4.30;;;4.90;80.40;;;;;;5116661;28;20063;-70
2022/04/11 08:18:58;;;;;;;5.38;3.67;;;5.40;82.80;;;;;;5115386;28;20023;-72
2022/04/11 08:21:24;;;;;;;5.15;3.60;;;5.20;75.80;;;;;;5116440;28;20031;-69
2022/04/11 08:23:49;;;;;;;9.30;4.70;;;5.20;75.90;;;;;;5116524;28;20056;-72
2022/04/11 08:26:15;;;;;;;6.85;3.85;;;5.40;74.70;;;;;;5115223;28;20020;-70
2022/04/11 08:28:40;;;;;;;5.45;3.38;;;5.50;74.20;;;;;;5115235;28;20012;-72
2022/04/11 08:31:06;;;;;;;9.35;4.32;;;5.60;72.40;;;;;;5116357;28;20472;-69
2022/04/11 08:33:31;;;;;;;7.93;3.90;;;5.90;72.40;;;;;;5116210;28;20048;-72
2022/04/11 08:35:57;;;;;;;4.40;3.45;;;6.00;75.60;;;;;;5116304;28;20389;-69
2022/04/11 08:38:22;;;;;;;3.90;2.95;;;5.90;74.30;;;;;;5116222;28;20051;-73
2022/04/11 08:40:50;;;;;;;9.68;3.47;;;5.50;73.70;;;;;;5116226;28;20026;-72
2022/04/11 08:43:20;;;;;;;5.10;3.40;;;5.50;75.50;;;;;;5116167;28;20477;-69
2022/04/11 08:45:46;;;;;;;7.15;4.22;;;5.60;77.00;;;;;;5114827;28;20115;-72
2022/04/11 08:48:12;;;;;;;3.40;2.75;;;5.60;76.20;;;;;;5116103;28;20023;-72
2022/04/11 08:50:39;;;;;;;5.60;4.22;;;5.60;74.80;;;;;;5116084;28;20016;-72
2022/04/11 08:53:05;;;;;;;4.40;4.00;;;5.90;75.20;;;;;;5115869;28;20035;-72
2022/04/11 08:55:30;;;;;;;6.53;3.42;;;5.90;74.30;;;;;;5116012;28;20024;-70
2022/04/11 08:57:58;;;;;;;8.20;4.03;;;5.80;74.10;;;;;;5115739;28;20024;-74
2022/04/11 09:00:23;;;;;;;4.78;3.28;;;5.90;77.40;;;;;;5115788;28;20533;-74
2022/04/11 09:02:49;;;;;;;5.45;3.47;;;5.60;76.30;;;;;;5113360;28;20035;-72
2022/04/11 09:05:23;;;;;;;7.78;4.22;;;5.50;79.60;;;;;;5115701;28;20460;-71
2022/04/11 09:07:54;;;;;;;8.10;4.82;;;5.80;86.60;;;;;;5115678;28;20031;-74
2022/04/11 09:10:27;;;;;;;8.63;5.05;;;5.90;86.80;;;;;;5113525;28;20012;-74
2022/04/11 09:12:55;;;;;;;8.00;5.50;;;6.20;87.70;;;;;;5114318;28;20039;-74
2022/04/11 09:15:25;;;;;;;7.38;5.40;;;6.00;85.20;;;;;;5115482;28;20019;-72
2022/04/11 09:17:51;;;;;;;7.82;5.05;;;6.10;90.50;;;;;;5115337;28;20400;-74
2022/04/11 09:20:21;;;;;;;8.32;4.88;;;6.30;87.20;;;;;;5115013;28;20048;-72
2022/04/11 09:22:47;;;;;;;5.82;5.18;;;6.30;89.60;;;;;;5115194;28;20049;-74
2022/04/11 09:25:16;;;;;;;5.13;4.45;;;6.20;83.80;;;;;;5115345;28;20032;-74
2022/04/11 09:27:42;;;;;;;6.50;5.20;;;6.50;84.40;;;;;;5115256;28;20073;-71
2022/04/11 09:30:35;;;;;;;5.05;4.22;;;6.70;81.70;;;;;;5113902;28;20069;-74
2022/04/11 09:33:03;;;;;;;7.47;4.60;;;6.90;76.00;;;;;;5113979;28;20055;-74
2022/04/11 09:35:32;;;;;;;6.57;4.47;;;7.10;77.50;;;;;;5115122;28;20020;-72
2022/04/11 09:38:17;;;;;;;8.52;4.82;;;7.10;73.40;;;;;;5113765;28;20114;-74
2022/04/11 09:40:55;;;;;;;6.97;3.70;;;7.20;73.70;;;;;;5115064;28;20142;-72
2022/04/11 09:43:29;;;;;;;4.72;4.28;;;6.80;72.10;;;;;;5114899;28;20059;-74
2022/04/11 09:45:55;;;;;;;6.78;4.50;;;6.50;74.00;;;;;;5114992;28;20081;-74
2022/04/11 09:48:26;;;;;;;8.73;4.72;;;6.10;74.00;;;;;;5114759;28;20020;-74
2022/04/11 09:50:53;;;;;;;5.72;4.72;;;5.80;76.00;;;;;;5113476;28;20469;-74
2022/04/11 09:53:24;;;;;;;10.93;5.28;;;5.70;79.00;;;;;;5113506;28;20020;-75
2022/04/11 09:55:52;;;;;;;8.40;4.82;;;5.80;81.50;;;;;;5114617;28;20027;-72
2022/04/11 09:58:23;;;;;;;6.70;5.40;;;6.20;81.80;;;;;;5114709;28;20020;-74
2022/04/11 10:00:50;;;;;;;7.35;4.32;;;6.60;80.90;;;;;;5113234;28;20051;-74
2022/04/11 10:03:19;;;;;;;5.20;4.70;;;6.80;75.50;;;;;;5114511;28;20028;-72
2022/04/11 10:05:46;;;;;;;5.55;4.13;;;6.80;74.70;;;;;;5114459;28;20019;-74
2022/04/11 10:08:15;;;;;;;3.55;3.20;;;6.80;74.00;;;;;;5114367;28;20031;-72
2022/04/11 10:10:41;;;;;;;8.95;4.43;;;6.50;71.00;;;;;;5114234;28;20020;-72
2022/04/11 10:13:13;;;;;;;5.15;4.38;;;6.80;73.30;;;;;;5112608;28;20045;-72
2022/04/11 10:15:41;;;;;;;5.65;4.88;;;7.00;71.90;;;;;;5114056;28;20461;-72
2022/04/11 10:18:09;;;;;;;5.10;3.92;;;6.90;73.60;;;;;;5113903;28;20020;-74
2022/04/11 10:20:37;;;;;;;5.47;3.60;;;6.60;77.90;;;;;;5112971;28;20016;-75
2022/04/11 10:23:43;;;;;;;3.30;3.10;;;6.40;80.20;;;;;;5114048;28;20028;-74
2022/04/11 10:26:14;;;;;;;3.28;3.08;;;6.20;82.00;;;;;;5110027;28;20137;-72
2022/04/11 10:28:48;;;;;;;3.55;3.25;;;6.20;82.70;;;;;;5112836;28;20020;-72
2022/04/11 10:31:15;;;;;;;3.25;3.05;;;6.10;78.10;;;;;;5114250;28;20023;-74
2022/04/11 10:33:48;;;;;;;3.85;3.30;;;6.10;77.60;;;;;;5114076;28;20052;-72
2022/04/11 10:36:32;;;;;;;4.75;3.70;;;5.80;76.10;;;;;;5112637;28;20028;-74
2022/04/11 10:39:16;;;;;;;3.78;3.10;;;5.40;84.50;;;;;;5113945;28;20023;-74
2022/04/11 10:41:56;;;;;;;5.43;4.25;;;4.60;99.80;;;;;;5113993;28;20036;-71
2022/04/11 10:44:37;;;;;;;6.68;4.15;;;4.00;99.90;;;;;;5112528;28;20503;-71
2022/04/11 10:47:09;;;;;;;8.52;4.72;;;3.70;99.90;;;;;;5112550;28;20023;-72
2022/04/11 10:49:49;;;;;;;5.57;3.70;;;3.70;99.90;;;;;;5114022;28;20537;-71
2022/04/11 10:52:31;;;;;;;8.88;6.18;;;3.50;99.90;;;;;;5112491;28;20393;-71
2022/04/11 10:55:16;;;;;;;6.95;5.78;;;3.70;99.90;;;;;;5112510;28;20034;-69
2022/04/11 10:57:56;;;;;;;9.65;7.47;;;4.00;99.90;;;;;;5113701;28;20026;-73
2022/04/11 11:00:33;;;;;;;10.10;5.47;;;4.50;99.90;;;;;;5113864;28;20031;-70
2022/04/11 11:03:02;;;;;;;10.82;6.90;;;4.80;99.90;;;;;;5113691;28;20092;-73
2022/04/11 11:05:31;;;;;;;19.60;11.25;;;4.90;99.90;;;;;;5112222;28;20020;-73
2022/04/11 11:08:12;;;;;;;35.20;18.02;;;5.00;99.90;;;;;;5112296;28;20123;-70
2022/04/11 11:10:58;;;;;;;38.10;21.20;;;5.20;99.90;;;;;;5112531;28;20047;-73
2022/04/11 11:13:37;;;;;;;9.38;6.13;;;5.40;99.90;;;;;;5113586;28;20054;-73
2022/04/11 11:16:10;;;;;;;22.30;13.20;;;5.60;99.90;;;;;;5112280;28;20023;-70
2022/04/11 11:18:53;;;;;;;;;;;6.00;99.90;;;;;;5112627;28;20032;-71
2022/04/11 11:21:19;;;;;;;;;;;6.10;99.90;;;;;;5112674;28;19908;-70
2022/04/11 11:26:38;;;;;;;108.85;45.90;;;6.40;95.10;;;;;;5116650;28;20019;-73
2022/04/11 11:29:14;;;;;;;34.60;18.20;;;6.70;99.90;;;;;;5116481;28;20452;-75
2022/04/11 11:31:40;;;;;;;9.88;5.60;;;6.90;93.40;;;;;;5117467;28;20085;-72
2022/04/11 11:34:11;;;;;;;4.45;3.78;;;7.20;94.30;;;;;;5116270;28;20040;-74
2022/04/11 11:36:37;;;;;;;4.40;3.38;;;7.20;76.90;;;;;;5117396;28;20032;-74
2022/04/11 11:39:16;;;;;;;5.10;3.15;;;7.30;76.20;;;;;;5117105;28;20031;-74
2022/04/11 11:41:43;;;;;;;10.68;5.88;;;7.10;69.70;;;;;;5116868;28;20080;-74
2022/04/11 11:44:09;;;;;;;18.08;11.63;;;6.80;70.20;;;;;;5116231;28;20028;-73
2022/04/11 11:46:53;;;;;;;26.95;17.65;;;6.50;75.00;;;;;;5115999;28;20023;-74
2022/04/11 11:49:20;;;;;;;18.70;13.45;;;6.10;78.80;;;;;;5117257;28;20111;-74
2022/04/11 11:51:46;;;;;;;3.50;3.08;;;5.70;85.70;;;;;;5115829;28;20465;-72
2022/04/11 11:54:12;;;;;;;29.90;19.83;;;5.50;88.90;;;;;;5117126;28;20401;-75
2022/04/11 11:56:45;;;;;;;14.38;11.27;;;5.70;96.40;;;;;;5117037;28;20035;-72
2022/04/11 11:59:11;;;;;;;7.35;4.90;;;6.00;99.90;;;;;;5117336;28;20015;-72
2022/04/11 12:04:18;;;;;;;7.65;6.00;;;6.30;99.90;;;;;;5115649;28;20421;-74
2022/04/11 12:04:34;;;;;;;38.33;20.77;;;6.60;98.50;;;;;;5116664;28;20118;-75
2022/04/11 12:07:01;;;;;;;21.50;11.88;;;6.80;94.20;;;;;;5116830;28;20019;-72
2022/04/11 12:09:36;;;;;;;23.58;12.80;;;7.00;99.90;;;;;;5116991;28;20024;-73
2022/04/11 12:12:05;;;;;;;39.75;18.58;;;6.80;91.90;;;;;;5116694;28;20024;-72
2022/04/11 12:14:58;;;;;;;31.23;16.10;;;6.60;86.30;;;;;;5116777;28;20035;-74
2022/04/11 12:17:30;;;;;;;27.77;15.20;;;6.40;84.90;;;;;;5110481;28;20035;-75
2022/04/11 12:20:05;;;;;;;15.07;8.38;;;6.10;85.10;;;;;;5114517;27;20028;-72
2022/04/11 12:22:31;;;;;;;5.45;3.85;;;5.40;87.40;;;;;;5076582;28;20051;-72
2022/04/11 12:24:56;;;;;;;9.80;7.15;;;5.00;97.50;;;;;;5094908;28;20242;-72
2022/04/11 12:27:23;;;;;;;16.58;11.10;;;5.00;99.90;;;;;;5094997;28;20035;-70
2022/04/11 12:29:49;;;;;;;12.63;6.78;;;4.90;99.90;;;;;;5095141;28;20043;-70
2022/04/11 12:32:17;;;;;;;4.90;3.10;;;5.10;99.90;;;;;;5094547;28;20044;-70
2022/04/11 12:35:13;;;;;;;17.38;10.18;;;5.40;99.90;;;;;;5094387;28;20087;-70
2022/04/11 12:37:54;;;;;;;14.02;8.95;;;5.70;99.90;;;;;;5094642;28;20063;-70
2022/04/11 12:40:19;;;;;;;7.45;3.72;;;6.00;99.90;;;;;;5093342;28;20020;-70
2022/04/11 12:42:46;;;;;;;5.80;4.40;;;6.20;82.70;;;;;;5094407;27;20036;-70
2022/04/11 12:45:14;;;;;;;5.10;4.50;;;6.40;80.70;;;;;;5093729;28;20032;-71
2022/04/11 12:48:03;;;;;;;9.00;5.60;;;6.70;72.70;;;;;;5093127;28;20098;-71
2022/04/11 12:50:30;;;;;;;4.50;2.92;;;6.80;69.10;;;;;;5093343;28;20028;-73